Time;durP1;ratioP1;P1;durP2;ratioP2;P2;SDS_P1;SDS_P2;PMS_P1;PMS_P2;Temp;Humidity;BMP_temperature;BMP_pressure;BME280_temperature;BME280_humidity;BME280_pressure;Samples;Min_cycle;Max_cycle;Signal;HPM_P1;HPM_P2
2021/09/24 00:00:24;;;;;;;34.67;24.42;;;308.10;2304.00;;;;;;5099556;28;20021;-76
2021/09/24 00:02:50;;;;;;;34.00;23.27;;;307.90;2304.00;;;;;;5108826;28;20024;-76
2021/09/24 00:05:17;;;;;;;34.30;23.55;;;307.90;2304.00;;;;;;5111867;28;20449;-76
2021/09/24 00:07:43;;;;;;;36.55;25.33;;;308.00;2304.00;;;;;;5089337;28;20023;-77
2021/09/24 00:10:10;;;;;;;39.50;29.52;;;308.00;2304.00;;;;;;5095161;28;20035;-77
2021/09/24 00:12:37;;;;;;;37.85;29.65;;;307.90;2304.00;;;;;;5087178;28;20024;-76
2021/09/24 00:15:05;;;;;;;42.78;33.92;;;307.90;2304.00;;;;;;5115294;28;20023;-77
2021/09/24 00:17:31;;;;;;;45.67;35.30;;;307.90;2304.00;;;;;;5092400;28;20028;-75
2021/09/24 00:19:57;;;;;;;51.03;36.30;;;307.90;2304.00;;;;;;5110485;28;20031;-75
2021/09/24 00:22:23;;;;;;;54.55;40.15;;;307.90;2304.00;;;;;;5127918;27;20027;-75
2021/09/24 00:24:48;;;;;;;60.67;40.35;;;307.80;2304.00;;;;;;5087698;28;20020;-76
2021/09/24 00:27:14;;;;;;;52.83;39.00;;;307.70;2304.00;;;;;;5110129;28;20068;-76
2021/09/24 00:29:40;;;;;;;51.38;35.63;;;307.80;2304.00;;;;;;5096700;28;20107;-75
2021/09/24 00:32:06;;;;;;;48.38;35.60;;;307.70;2304.00;;;;;;5096599;28;20444;-75
2021/09/24 00:34:32;;;;;;;46.85;34.85;;;307.70;2304.00;;;;;;5096395;28;20043;-76
2021/09/24 00:36:58;;;;;;;48.35;35.17;;;307.80;2304.00;;;;;;5096439;28;20028;-76
2021/09/24 00:39:24;;;;;;;47.70;35.70;;;307.70;2304.00;;;;;;5115006;28;20040;-76
2021/09/24 00:41:50;;;;;;;49.40;33.38;;;307.80;2304.00;;;;;;5114832;28;20471;-76
2021/09/24 00:44:15;;;;;;;44.47;30.17;;;307.70;2304.00;;;;;;5095341;28;20024;-76
2021/09/24 00:46:41;;;;;;;32.88;25.88;;;307.80;2304.00;;;;;;5118556;27;20098;-76
2021/09/24 00:49:07;;;;;;;30.98;22.33;;;307.70;2304.00;;;;;;5095694;28;20027;-76
2021/09/24 00:51:33;;;;;;;29.98;22.08;;;307.70;2304.00;;;;;;5113485;28;20055;-75
2021/09/24 00:53:58;;;;;;;29.02;22.10;;;307.70;2304.00;;;;;;5114065;28;20039;-75
2021/09/24 00:56:26;;;;;;;34.47;24.95;;;307.70;2304.00;;;;;;5113482;28;20435;-76
2021/09/24 00:58:52;;;;;;;31.23;23.08;;;307.60;2304.00;;;;;;5106333;28;20026;-77
2021/09/24 01:01:17;;;;;;;32.80;22.52;;;307.70;2304.00;;;;;;5109718;28;20091;-77
2021/09/24 01:03:43;;;;;;;34.55;24.92;;;307.70;2304.00;;;;;;5107927;28;20020;-77
2021/09/24 01:06:09;;;;;;;30.35;23.88;;;307.60;2304.00;;;;;;5102216;28;20492;-77
2021/09/24 01:08:35;;;;;;;37.65;28.10;;;307.50;2304.00;;;;;;5095060;28;20070;-77
2021/09/24 01:11:00;;;;;;;33.47;24.23;;;307.50;2304.00;;;;;;5111156;28;20028;-77
2021/09/24 01:13:26;;;;;;;41.17;27.33;;;307.50;2304.00;;;;;;5105853;28;20480;-77
2021/09/24 01:15:52;;;;;;;41.50;29.58;;;307.50;2304.00;;;;;;5113548;28;20016;-77
2021/09/24 01:18:17;;;;;;;41.13;32.45;;;307.60;2304.00;;;;;;5095734;28;20026;-77
2021/09/24 01:20:43;;;;;;;41.92;31.40;;;307.40;2304.00;;;;;;5114340;28;20020;-77
2021/09/24 01:23:09;;;;;;;40.30;30.60;;;307.50;2304.00;;;;;;5095215;28;20132;-77
2021/09/24 01:25:35;;;;;;;38.05;28.98;;;307.50;2304.00;;;;;;5095455;28;20437;-77
2021/09/24 01:28:01;;;;;;;38.90;27.40;;;307.50;2304.00;;;;;;5114116;28;20480;-77
2021/09/24 01:30:27;;;;;;;33.55;24.88;;;307.50;2304.00;;;;;;5095467;28;20128;-77
2021/09/24 01:32:52;;;;;;;40.90;29.15;;;307.40;2304.00;;;;;;5128476;27;20020;-76
2021/09/24 01:35:19;;;;;;;39.30;29.27;;;307.40;2304.00;;;;;;5113752;28;20066;-77
2021/09/24 01:37:45;;;;;;;43.15;31.67;;;307.40;2304.00;;;;;;5113704;28;20020;-77
2021/09/24 01:40:14;;;;;;;42.67;31.52;;;307.40;2304.00;;;;;;5113625;28;20019;-77
2021/09/24 01:42:41;;;;;;;40.10;30.75;;;307.40;2304.00;;;;;;5095516;28;20022;-77
2021/09/24 01:45:07;;;;;;;37.67;28.20;;;307.40;2304.00;;;;;;5095339;28;20032;-77
2021/09/24 01:47:33;;;;;;;40.55;28.60;;;307.30;2304.00;;;;;;5113982;28;20015;-77
2021/09/24 01:49:59;;;;;;;36.42;25.55;;;307.30;2304.00;;;;;;5080807;28;20043;-76
2021/09/24 01:52:24;;;;;;;35.50;25.48;;;307.30;2304.00;;;;;;5113194;28;20498;-76
2021/09/24 01:54:50;;;;;;;36.83;25.70;;;307.20;2304.00;;;;;;5109480;28;20051;-77
2021/09/24 01:57:16;;;;;;;36.72;28.52;;;307.30;2304.00;;;;;;5103133;28;20076;-77
2021/09/24 01:59:41;;;;;;;35.53;28.80;;;307.30;2304.00;;;;;;5093348;28;20031;-76
2021/09/24 02:02:07;;;;;;;36.22;26.73;;;307.30;2304.00;;;;;;5094194;28;20047;-76
2021/09/24 02:04:33;;;;;;;38.58;27.67;;;307.30;2304.00;;;;;;5112244;28;20051;-77
2021/09/24 02:06:59;;;;;;;40.40;29.05;;;307.30;2304.00;;;;;;5081623;28;20510;-78
2021/09/24 02:09:24;;;;;;;33.22;27.30;;;307.30;2304.00;;;;;;5112354;28;20027;-77
2021/09/24 02:11:50;;;;;;;37.65;27.25;;;307.30;2304.00;;;;;;5080350;28;20030;-77
2021/09/24 02:14:17;;;;;;;34.03;25.77;;;307.30;2304.00;;;;;;5080763;28;20024;-77
2021/09/24 02:16:43;;;;;;;32.63;23.75;;;307.30;2304.00;;;;;;5094513;28;20027;-77
2021/09/24 02:19:08;;;;;;;27.10;20.65;;;307.30;2304.00;;;;;;5112710;28;20015;-77
2021/09/24 02:21:34;;;;;;;27.83;21.38;;;307.30;2304.00;;;;;;5109854;28;20020;-77
2021/09/24 02:24:00;;;;;;;30.70;21.15;;;307.20;2304.00;;;;;;5101606;28;20028;-77
2021/09/24 02:26:26;;;;;;;28.90;20.70;;;307.20;2304.00;;;;;;5112939;28;20031;-77
2021/09/24 02:28:51;;;;;;;27.83;20.20;;;282.50;2278.40;;;;;;5112733;28;20030;-77
2021/09/24 02:31:17;;;;;;;30.67;21.42;;;282.50;2278.40;;;;;;5081578;28;20451;-78
2021/09/24 02:33:44;;;;;;;26.38;22.02;;;282.40;2278.40;;;;;;5107999;28;20488;-78
2021/09/24 02:36:10;;;;;;;30.35;22.13;;;282.30;2278.40;;;;;;5087678;28;20399;-78
2021/09/24 02:38:37;;;;;;;30.13;21.98;;;282.30;2278.40;;;;;;5080129;28;20061;-77
2021/09/24 02:41:03;;;;;;;26.73;21.17;;;282.20;2278.40;;;;;;5094706;28;20028;-77
2021/09/24 02:43:29;;;;;;;27.38;21.05;;;282.10;2278.40;;;;;;5112153;28;20019;-77
2021/09/24 02:45:55;;;;;;;30.23;22.48;;;282.10;2278.40;;;;;;5112073;28;20063;-77
2021/09/24 02:48:20;;;;;;;29.55;21.65;;;282.00;2278.40;;;;;;5088457;28;20079;-77
2021/09/24 02:50:47;;;;;;;33.38;22.95;;;282.00;2278.40;;;;;;5109635;28;20658;-77
2021/09/24 02:53:13;;;;;;;27.75;20.80;;;281.90;2278.40;;;;;;5094344;28;20770;-76
2021/09/24 02:55:39;;;;;;;27.20;21.15;;;281.90;2278.40;;;;;;5100675;28;20027;-76
2021/09/24 02:58:05;;;;;;;27.85;21.50;;;281.90;2278.40;;;;;;5080164;28;20441;-77
2021/09/24 03:00:31;;;;;;;31.35;21.83;;;281.90;2278.40;;;;;;5090269;28;20081;-76
2021/09/24 03:02:57;;;;;;;28.27;21.10;;;281.90;2278.40;;;;;;5104959;28;20023;-76
2021/09/24 03:05:23;;;;;;;30.02;22.15;;;281.90;2278.40;;;;;;5093623;28;20048;-76
2021/09/24 03:07:50;;;;;;;28.08;23.58;;;281.90;2278.40;;;;;;5112542;28;20027;-76
2021/09/24 03:10:16;;;;;;;27.13;21.42;;;281.90;2278.40;;;;;;5090996;28;20036;-76
2021/09/24 03:12:42;;;;;;;27.20;21.00;;;281.80;2278.40;;;;;;5078345;28;20481;-76
2021/09/24 03:15:10;;;;;;;28.65;22.48;;;281.80;2278.40;;;;;;5090967;28;20042;-77
2021/09/24 03:17:36;;;;;;;31.10;23.38;;;281.70;2278.40;;;;;;5116465;28;20024;-76
2021/09/24 03:20:04;;;;;;;27.63;21.00;;;281.70;2278.40;;;;;;5097821;28;20483;-76
2021/09/24 03:22:30;;;;;;;25.95;21.63;;;281.70;2278.40;;;;;;5099128;27;20023;-76
2021/09/24 03:24:56;;;;;;;29.98;21.83;;;281.70;2278.40;;;;;;5097319;28;20069;-76
2021/09/24 03:27:21;;;;;;;27.05;22.13;;;281.70;2278.40;;;;;;5115374;28;20024;-76
2021/09/24 03:29:47;;;;;;;31.35;23.23;;;281.70;2278.40;;;;;;5115885;28;20406;-77
2021/09/24 03:32:18;;;;;;;30.35;21.08;;;281.70;2278.40;;;;;;5097960;28;20020;-76
2021/09/24 03:34:45;;;;;;;29.90;22.48;;;281.70;2278.40;;;;;;5102494;28;20069;-76
2021/09/24 03:37:11;;;;;;;28.15;21.25;;;281.70;2278.40;;;;;;5096552;28;20506;-75
2021/09/24 03:39:37;;;;;;;29.58;20.65;;;281.70;2278.40;;;;;;5112911;28;20031;-76
2021/09/24 03:42:02;;;;;;;29.73;21.83;;;281.70;2278.40;;;;;;5114703;28;20020;-76
2021/09/24 03:44:28;;;;;;;33.80;21.58;;;281.70;2278.40;;;;;;5114873;28;20059;-75
2021/09/24 03:46:54;;;;;;;27.27;21.40;;;281.60;2278.40;;;;;;5115986;28;20519;-76
2021/09/24 03:49:20;;;;;;;30.95;23.55;;;281.70;2278.40;;;;;;5095479;28;20046;-76
2021/09/24 03:51:45;;;;;;;32.65;22.65;;;281.60;2278.40;;;;;;5097769;28;20028;-77
2021/09/24 03:54:11;;;;;;;29.40;22.83;;;281.60;2278.40;;;;;;5097259;28;20391;-76
2021/09/24 03:56:37;;;;;;;32.15;23.17;;;281.60;2278.40;;;;;;5093257;28;20043;-79
2021/09/24 03:59:03;;;;;;;30.30;21.15;;;281.60;2278.40;;;;;;5106540;28;20024;-78
2021/09/24 04:01:29;;;;;;;33.63;24.17;;;281.60;2278.40;;;;;;5094854;28;20047;-78
2021/09/24 04:03:54;;;;;;;36.45;23.25;;;256.90;2252.80;;;;;;5103910;28;20024;-78
2021/09/24 04:06:20;;;;;;;31.85;23.90;;;256.80;2252.80;;;;;;5114657;28;20422;-78
2021/09/24 04:08:46;;;;;;;35.95;26.33;;;256.80;2252.80;;;;;;5115577;28;20024;-77
2021/09/24 04:11:11;;;;;;;31.98;24.40;;;256.80;2252.80;;;;;;5084728;28;20029;-77
2021/09/24 04:13:37;;;;;;;37.25;26.08;;;256.80;2252.80;;;;;;5092668;28;20052;-78
2021/09/24 04:16:03;;;;;;;35.15;24.88;;;256.70;2252.80;;;;;;5087863;28;20031;-76
2021/09/24 04:18:29;;;;;;;42.40;29.77;;;256.70;2252.80;;;;;;5091427;28;20016;-77
2021/09/24 04:20:54;;;;;;;38.15;26.98;;;256.60;2252.80;;;;;;5113267;28;20024;-77
2021/09/24 04:23:21;;;;;;;45.85;30.17;;;256.70;2252.80;;;;;;5104486;28;20395;-77
2021/09/24 04:25:47;;;;;;;42.05;27.92;;;256.70;2252.80;;;;;;5088631;28;20036;-78
2021/09/24 04:28:13;;;;;;;45.10;28.25;;;256.60;2252.80;;;;;;5088441;28;20032;-77
2021/09/24 04:30:39;;;;;;;40.03;26.75;;;256.60;2252.80;;;;;;5092115;28;20065;-78
2021/09/24 04:33:05;;;;;;;39.08;29.17;;;256.60;2252.80;;;;;;5096446;28;20490;-77
2021/09/24 04:35:30;;;;;;;40.42;26.73;;;256.60;2252.80;;;;;;5096621;28;20038;-77
2021/09/24 04:37:56;;;;;;;37.53;26.23;;;256.60;2252.80;;;;;;5085082;28;20040;-77
2021/09/24 04:40:22;;;;;;;37.28;24.80;;;256.70;2252.80;;;;;;5114596;28;20024;-76
2021/09/24 04:42:48;;;;;;;36.67;25.58;;;256.70;2252.80;;;;;;5095035;28;20026;-76
2021/09/24 04:45:13;;;;;;;33.00;24.60;;;256.70;2252.80;;;;;;5081731;28;20479;-77
2021/09/24 04:47:39;;;;;;;35.83;26.38;;;256.80;2252.80;;;;;;5102252;28;20028;-77
2021/09/24 04:50:06;;;;;;;33.53;24.33;;;256.80;2252.80;;;;;;5091349;28;20463;-77
2021/09/24 04:52:33;;;;;;;38.30;25.90;;;256.80;2252.80;;;;;;5095113;28;20055;-77
2021/09/24 04:54:58;;;;;;;39.22;25.50;;;256.90;2252.80;;;;;;5093962;28;20043;-77
2021/09/24 04:57:24;;;;;;;31.48;24.35;;;256.90;2252.80;;;;;;5085544;28;20101;-77
2021/09/24 04:59:50;;;;;;;33.88;22.38;;;256.90;2252.80;;;;;;5097782;28;20424;-77
2021/09/24 05:02:16;;;;;;;28.67;21.90;;;256.90;2252.80;;;;;;5092651;28;20019;-77
2021/09/24 05:04:43;;;;;;;31.20;23.73;;;256.80;2252.80;;;;;;5083168;28;20127;-77
2021/09/24 05:07:09;;;;;;;32.92;23.40;;;256.90;2252.80;;;;;;5109314;28;20108;-77
2021/09/24 05:09:35;;;;;;;31.65;23.00;;;281.60;2278.40;;;;;;5089155;28;20466;-77
2021/09/24 05:12:00;;;;;;;30.13;21.88;;;281.60;2278.40;;;;;;5082085;28;20032;-77
2021/09/24 05:14:26;;;;;;;32.50;22.17;;;281.60;2278.40;;;;;;5114026;28;20055;-77
2021/09/24 05:16:52;;;;;;;28.13;21.35;;;281.70;2278.40;;;;;;5106852;28;20030;-77
2021/09/24 05:19:18;;;;;;;30.25;21.70;;;281.80;2278.40;;;;;;5089868;28;20027;-77
2021/09/24 05:21:43;;;;;;;32.83;23.75;;;281.90;2278.40;;;;;;5087759;28;20016;-76
2021/09/24 05:24:09;;;;;;;28.65;20.45;;;281.90;2278.40;;;;;;5088223;28;20447;-77
2021/09/24 05:26:35;;;;;;;29.08;21.40;;;282.00;2278.40;;;;;;5086962;28;20070;-76
2021/09/24 05:29:00;;;;;;;27.02;21.23;;;282.10;2278.40;;;;;;5091041;28;20031;-77
2021/09/24 05:31:26;;;;;;;31.17;20.55;;;282.10;2278.40;;;;;;5089195;28;20445;-78
2021/09/24 05:33:52;;;;;;;29.67;21.05;;;282.20;2278.40;;;;;;5105824;28;20053;-77
2021/09/24 05:36:18;;;;;;;28.90;20.95;;;282.20;2278.40;;;;;;5093895;28;20035;-77
2021/09/24 05:38:44;;;;;;;26.20;20.58;;;282.30;2278.40;;;;;;5106310;28;20020;-76
2021/09/24 05:41:10;;;;;;;27.52;21.25;;;282.30;2278.40;;;;;;5086594;28;20027;-77
2021/09/24 05:43:37;;;;;;;29.33;23.30;;;282.50;2278.40;;;;;;5107027;28;20111;-78
2021/09/24 05:46:03;;;;;;;25.98;20.38;;;282.50;2278.40;;;;;;5101610;28;20782;-77
2021/09/24 05:48:30;;;;;;;27.30;20.30;;;282.50;2278.40;;;;;;5102546;28;20024;-77
2021/09/24 05:50:56;;;;;;;30.77;19.35;;;307.20;2304.00;;;;;;5101770;28;20094;-78
2021/09/24 05:53:22;;;;;;;27.38;19.90;;;307.20;2304.00;;;;;;5103790;28;20035;-77
2021/09/24 05:55:48;;;;;;;25.17;19.75;;;307.30;2304.00;;;;;;5107368;28;20498;-77
2021/09/24 05:58:15;;;;;;;27.95;21.13;;;307.40;2304.00;;;;;;5085083;28;20019;-78
2021/09/24 06:00:41;;;;;;;27.05;19.38;;;307.40;2304.00;;;;;;5086789;28;20019;-79
2021/09/24 06:03:07;;;;;;;24.20;18.73;;;307.40;2304.00;;;;;;5106268;28;20395;-79
2021/09/24 06:05:33;;;;;;;26.38;20.40;;;307.60;2304.00;;;;;;5083903;28;20136;-79
2021/09/24 06:07:59;;;;;;;32.10;22.00;;;307.70;2304.00;;;;;;5086029;28;20446;-77
2021/09/24 06:10:26;;;;;;;27.35;20.40;;;307.70;2304.00;;;;;;5085071;28;20472;-77
2021/09/24 06:12:51;;;;;;;26.00;20.13;;;307.80;2304.00;;;;;;5090444;28;20031;-77
2021/09/24 06:15:22;;;;;;;26.58;20.10;;;307.90;2304.00;;;;;;5098985;28;20081;-78
2021/09/24 06:17:48;;;;;;;28.75;19.77;;;307.90;2304.00;;;;;;5086634;28;20031;-77
2021/09/24 06:20:15;;;;;;;25.35;19.45;;;308.00;2304.00;;;;;;5097024;28;20825;-77
2021/09/24 06:22:42;;;;;;;23.73;18.80;;;308.10;2304.00;;;;;;5108267;28;20539;-76
2021/09/24 06:25:08;;;;;;;25.98;19.15;;;332.80;2329.60;;;;;;5106905;28;20114;-76
2021/09/24 06:27:36;;;;;;;28.05;18.92;;;332.90;2329.60;;;;;;5089433;28;20055;-76
2021/09/24 06:30:04;;;;;;;25.30;19.67;;;333.10;2329.60;;;;;;5111516;27;20084;-76
2021/09/24 06:32:30;;;;;;;27.20;19.00;;;333.20;2329.60;;;;;;5080418;28;20481;-76
2021/09/24 06:34:56;;;;;;;26.23;18.98;;;333.30;2329.60;;;;;;5087693;28;20043;-76
2021/09/24 06:37:22;;;;;;;24.17;19.30;;;333.40;2329.60;;;;;;5104614;28;20494;-76
2021/09/24 06:39:48;;;;;;;23.83;17.52;;;333.60;2329.60;;;;;;5082390;28;20602;-76
2021/09/24 06:42:14;;;;;;;25.45;19.00;;;333.70;2329.60;;;;;;5102722;28;20027;-76
2021/09/24 06:44:41;;;;;;;24.35;17.65;;;358.40;2329.60;;;;;;5107129;28;20099;-76
2021/09/24 06:47:07;;;;;;;22.10;16.75;;;358.60;2329.60;;;;;;5097478;28;20536;-77
2021/09/24 06:49:35;;;;;;;21.90;18.20;;;358.80;2329.60;;;;;;5094037;28;20035;-77
2021/09/24 06:52:00;;;;;;;23.73;18.63;;;359.10;2329.60;;;;;;5109740;28;20066;-77
2021/09/24 06:54:27;;;;;;;22.15;18.80;;;359.20;2329.60;;;;;;5101859;28;20024;-77
2021/09/24 06:56:53;;;;;;;22.60;18.58;;;384.10;2329.60;;;;;;5084774;28;20028;-77
2021/09/24 06:59:19;;;;;;;27.08;20.05;;;384.30;2329.60;;;;;;5087247;28;20016;-76
2021/09/24 07:01:45;;;;;;;23.63;18.05;;;384.40;2329.60;;;;;;5084156;28;20076;-77
2021/09/24 07:04:12;;;;;;;23.08;18.80;;;384.70;2329.60;;;;;;5102300;28;20098;-76
2021/09/24 07:06:38;;;;;;;21.55;16.73;;;409.60;2355.20;;;;;;5115666;28;20070;-77
2021/09/24 07:09:06;;;;;;;23.48;18.33;;;409.70;2355.20;;;;;;5104549;28;20153;-76
2021/09/24 07:11:33;;;;;;;21.75;16.95;;;409.90;2355.20;;;;;;5102748;28;20494;-77
2021/09/24 07:13:59;;;;;;;22.05;16.02;;;410.20;2355.20;;;;;;5116535;27;20032;-76
2021/09/24 07:16:25;;;;;;;21.02;15.23;;;410.20;2355.20;;;;;;5085520;28;20805;-77
2021/09/24 07:18:50;;;;;;;28.80;18.25;;;410.20;2355.20;;;;;;5107703;28;20017;-77
2021/09/24 07:21:16;;;;;;;23.40;17.75;;;410.40;2355.20;;;;;;5087694;28;20020;-77
2021/09/24 07:23:42;;;;;;;24.70;17.23;;;410.30;2355.20;;;;;;5101952;28;20472;-77
2021/09/24 07:26:08;;;;;;;26.40;15.93;;;410.50;2355.20;;;;;;5108499;28;20066;-77
2021/09/24 07:28:34;;;;;;;21.90;16.05;;;435.50;2355.20;;;;;;5084812;28;20024;-77
2021/09/24 07:31:00;;;;;;;18.27;15.45;;;435.70;2355.20;;;;;;5104785;28;20028;-76
2021/09/24 07:33:26;;;;;;;19.10;14.60;;;436.10;2355.20;;;;;;5082092;28;20509;-76
2021/09/24 07:35:52;;;;;;;17.33;13.57;;;460.80;2380.80;;;;;;5105077;28;20019;-78
2021/09/24 07:38:18;;;;;;;14.60;12.90;;;461.10;2380.80;;;;;;5087448;28;20032;-77
2021/09/24 07:40:45;;;;;;;16.10;13.20;;;461.30;2380.80;;;;;;5108009;28;20022;-77
2021/09/24 07:43:11;;;;;;;11.60;9.60;;;461.30;2380.80;;;;;;5104175;28;20020;-77
2021/09/24 07:45:38;;;;;;;15.25;11.35;;;461.30;2380.80;;;;;;5083798;28;20042;-76
2021/09/24 07:48:05;;;;;;;13.23;11.43;;;461.50;2380.80;;;;;;5103578;28;20026;-77
2021/09/24 07:50:31;;;;;;;12.65;11.07;;;461.60;2380.80;;;;;;5085889;28;20035;-76
2021/09/24 07:52:56;;;;;;;16.42;10.10;;;486.40;2380.80;;;;;;5080625;28;20034;-77
2021/09/24 07:55:23;;;;;;;13.40;9.82;;;486.60;2380.80;;;;;;5087375;28;20032;-78
2021/09/24 07:57:52;;;;;;;12.68;9.88;;;486.90;2380.80;;;;;;5118808;27;20048;-77
2021/09/24 08:00:18;;;;;;;13.38;9.85;;;487.10;2380.80;;;;;;5103740;28;20115;-77
2021/09/24 08:02:44;;;;;;;13.85;9.30;;;512.00;2380.80;;;;;;5108328;28;20024;-77
2021/09/24 08:05:10;;;;;;;14.05;9.50;;;512.40;2380.80;;;;;;5105002;28;20380;-77
2021/09/24 08:07:36;;;;;;;11.57;7.57;;;512.70;2380.80;;;;;;5108759;28;20500;-77
2021/09/24 08:10:04;;;;;;;8.02;5.90;;;512.60;2380.80;;;;;;5113511;28;20126;-77
2021/09/24 08:12:29;;;;;;;8.75;6.32;;;512.80;2380.80;;;;;;5115055;27;20056;-78
2021/09/24 08:14:55;;;;;;;10.05;6.82;;;512.80;2380.80;;;;;;5130264;27;20733;-78
2021/09/24 08:17:21;;;;;;;9.05;7.30;;;512.80;2380.80;;;;;;5104684;27;20102;-77
2021/09/24 08:19:47;;;;;;;9.40;6.32;;;537.90;2406.40;;;;;;5089166;28;20027;-78
2021/09/24 08:22:13;;;;;;;8.05;5.50;;;538.30;2406.40;;;;;;5121896;27;20106;-77
2021/09/24 08:24:39;;;;;;;10.07;5.63;;;538.50;2406.40;;;;;;5087412;28;20432;-77
2021/09/24 08:27:05;;;;;;;7.80;4.97;;;563.50;2432.00;;;;;;5120044;27;20031;-78
2021/09/24 08:29:31;;;;;;;8.95;4.93;;;563.40;2432.00;;;;;;5112426;28;20098;-78
2021/09/24 08:31:57;;;;;;;7.53;5.28;;;563.60;2432.00;;;;;;5092388;28;20112;-77
2021/09/24 08:34:23;;;;;;;5.97;4.75;;;564.00;2432.00;;;;;;5109457;28;20035;-77
2021/09/24 08:36:49;;;;;;;7.80;5.25;;;589.10;2432.00;;;;;;5115441;27;20039;-78
2021/09/24 08:39:14;;;;;;;6.00;4.60;;;589.30;2432.00;;;;;;5104855;28;20631;-78
2021/09/24 08:41:40;;;;;;;12.40;6.57;;;589.20;2432.00;;;;;;5117572;27;20375;-77
2021/09/24 08:44:06;;;;;;;8.27;5.60;;;589.50;2432.00;;;;;;5109480;28;20027;-77
2021/09/24 08:46:34;;;;;;;7.82;4.47;;;614.40;2432.00;;;;;;5108931;28;20541;-79
2021/09/24 08:49:03;;;;;;;7.22;5.03;;;614.40;2432.00;;;;;;5087909;28;20043;-78
2021/09/24 08:51:29;;;;;;;6.35;4.85;;;614.60;2432.00;;;;;;5087468;28;20027;-76
2021/09/24 08:53:55;;;;;;;6.95;4.72;;;614.70;2432.00;;;;;;5085303;28;20032;-77
2021/09/24 08:56:21;;;;;;;7.68;4.82;;;614.80;2432.00;;;;;;5104607;28;20531;-76
2021/09/24 08:58:47;;;;;;;7.03;5.07;;;615.10;2432.00;;;;;;5105245;28;20031;-77
2021/09/24 09:01:12;;;;;;;8.18;5.00;;;640.00;2406.40;;;;;;5110079;27;20031;-77
2021/09/24 09:03:43;;;;;;;8.05;5.07;;;640.00;2380.80;;;;;;5094201;28;20020;-78
2021/09/24 09:06:14;;;;;;;8.13;5.50;;;640.10;2355.20;;;;;;5083154;28;20048;-77
2021/09/24 09:08:40;;;;;;;6.43;5.30;;;640.10;2355.20;;;;;;5110045;28;20036;-77
2021/09/24 09:11:06;;;;;;;6.47;4.57;;;640.00;2380.80;;;;;;5088813;28;20042;-77
2021/09/24 09:13:49;;;;;;;10.30;5.18;;;640.30;2355.20;;;;;;5114113;27;20788;-78
2021/09/24 09:16:21;;;;;;;9.13;5.72;;;640.70;2252.80;;;;;;5111188;28;20477;-78
2021/09/24 09:18:48;;;;;;;10.20;4.70;;;640.70;2227.20;;;;;;5094734;28;20480;-78
2021/09/24 09:21:16;;;;;;;7.63;4.63;;;640.60;2227.20;;;;;;5091174;28;20030;-77
2021/09/24 09:23:48;;;;;;;6.68;4.20;;;640.90;2227.20;;;;;;5105550;28;20387;-77
2021/09/24 09:26:16;;;;;;;6.95;5.10;;;640.60;2227.20;;;;;;5105956;28;20416;-77
2021/09/24 09:28:47;;;;;;;8.35;5.35;;;640.70;2227.20;;;;;;5108017;28;20582;-77
2021/09/24 09:31:23;;;;;;;7.40;5.97;;;665.60;2201.60;;;;;;5109533;28;20099;-77
2021/09/24 09:33:50;;;;;;;;;;;665.70;2201.60;;;;;;5107746;27;20584;-79
2021/09/24 09:36:25;;;;;;;9.38;5.25;;;665.90;2176.00;;;;;;5084460;28;19919;-79
2021/09/24 09:38:52;;;;;;;9.02;5.70;;;666.30;2099.20;;;;;;5086266;28;20056;-78
2021/09/24 09:41:19;;;;;;;6.82;4.68;;;666.20;2099.20;;;;;;5105974;28;20123;-79
2021/09/24 09:43:54;;;;;;;7.25;4.40;;;691.20;2099.20;;;;;;5105049;28;20097;-79
2021/09/24 09:46:27;;;;;;;4.72;4.22;;;666.10;2073.60;;;;;;5106455;28;20080;-79
2021/09/24 09:49:06;;;;;;;8.05;4.90;;;666.10;2099.20;;;;;;5105480;28;20059;-79
2021/09/24 09:51:33;;;;;;;11.27;4.72;;;666.20;2073.60;;;;;;5103770;28;20447;-79
2021/09/24 09:53:59;;;;;;;11.68;5.35;;;691.20;2048.00;;;;;;5109158;28;20084;-79
2021/09/24 09:56:38;;;;;;;6.53;4.10;;;691.90;2022.40;;;;;;5104362;28;20052;-78
2021/09/24 09:59:25;;;;;;;9.02;4.40;;;691.80;1971.20;;;;;;5091531;28;20070;-79
2021/09/24 10:02:15;;;;;;;6.05;3.90;;;691.70;1996.80;;;;;;5088307;28;20022;-78
2021/09/24 10:04:43;;;;;;;8.18;5.10;;;691.40;1996.80;;;;;;5098439;28;20039;-78
2021/09/24 10:07:23;;;;;;;9.20;4.85;;;691.90;1945.60;;;;;;5088960;28;20024;-79
2021/09/24 10:10:02;;;;;;;7.68;4.78;;;691.70;1945.60;;;;;;5084838;28;20034;-79
2021/09/24 10:12:28;;;;;;;10.90;5.55;;;692.00;1920.00;;;;;;5105101;28;20040;-79
2021/09/24 10:14:54;;;;;;;7.95;4.35;;;692.10;1894.40;;;;;;5087058;28;20031;-79
2021/09/24 10:17:23;;;;;;;10.45;5.45;;;717.10;1894.40;;;;;;5091110;28;20064;-79
2021/09/24 10:19:50;;;;;;;8.65;5.25;;;717.50;1868.80;;;;;;5111996;28;20060;-80
2021/09/24 10:22:17;;;;;;;6.93;5.32;;;742.40;1817.60;;;;;;5104980;28;20530;-79
2021/09/24 10:24:44;;;;;;;7.18;4.93;;;742.90;1766.40;;;;;;5085905;28;20038;-79
2021/09/24 10:27:30;;;;;;;10.35;4.13;;;743.00;1740.80;;;;;;5099696;28;20028;-79
2021/09/24 10:29:59;;;;;;;6.93;3.85;;;743.00;1715.20;;;;;;5080521;28;20499;-80
2021/09/24 10:32:27;;;;;;;22.85;4.20;;;717.50;1740.80;;;;;;5089456;28;20063;-79
2021/09/24 10:34:56;;;;;;;6.57;4.80;;;742.40;1740.80;;;;;;5101994;28;20492;-79
2021/09/24 10:37:24;;;;;;;8.38;3.58;;;743.20;1689.60;;;;;;5104462;28;20038;-80
2021/09/24 10:39:57;;;;;;;6.82;5.00;;;768.30;1638.40;;;;;;5099470;28;20016;-80
2021/09/24 10:42:28;;;;;;;5.13;3.80;;;768.00;1638.40;;;;;;5105254;28;20073;-79
2021/09/24 10:45:40;;;;;;;7.30;3.95;;;768.00;1638.40;;;;;;5083040;28;20069;-79
2021/09/24 10:48:08;;;;;;;6.05;4.00;;;;;;;;;;5108343;27;20400;-80
2021/09/24 10:50:34;;;;;;;5.60;4.57;;;;;;;;;;5079042;28;20035;-81
2021/09/24 10:53:18;;;;;;;11.93;4.15;;;793.80;1536.00;;;;;;5083953;28;20028;-80
2021/09/24 10:55:53;;;;;;;7.43;4.03;;;794.10;1561.60;;;;;;5102933;28;20118;-80
2021/09/24 10:58:27;;;;;;;6.60;3.90;;;794.20;1536.00;;;;;;5103171;28;20462;-79
2021/09/24 11:00:57;;;;;;;6.30;3.92;;;794.10;1510.40;;;;;;5081636;28;20538;-79
2021/09/24 11:03:25;;;;;;;7.57;4.03;;;794.50;1510.40;;;;;;5082769;28;20089;-79
2021/09/24 11:06:04;;;;;;;12.60;4.22;;;768.70;1510.40;;;;;;5104519;28;20048;-79
2021/09/24 11:08:33;;;;;;;6.32;3.92;;;793.60;1536.00;;;;;;5110740;28;20119;-79
2021/09/24 11:11:12;;;;;;;7.47;4.35;;;768.80;1510.40;;;;;;5082580;28;20032;-78
2021/09/24 11:13:42;;;;;;;8.73;4.20;;;819.20;1459.20;;;;;;5102378;28;20062;-76
2021/09/24 11:16:10;;;;;;;6.60;5.03;;;793.80;1484.80;;;;;;5106778;28;20020;-78
2021/09/24 11:18:49;;;;;;;6.45;4.60;;;768.90;1459.20;;;;;;5076413;28;20042;-75
2021/09/24 11:21:38;;;;;;;10.93;7.82;;;793.80;1510.40;;;;;;5103359;28;20020;-75
2021/09/24 11:24:29;;;;;;;6.63;4.75;;;793.70;1459.20;;;;;;5007290;28;20141;-75
2021/09/24 11:27:01;;;;;;;13.75;7.47;;;793.90;1510.40;;;;;;5008966;28;20034;-76
2021/09/24 11:29:28;;;;;;;6.28;3.90;;;794.00;1484.80;;;;;;5007858;28;20447;-76
2021/09/24 11:31:53;;;;;;;7.40;4.78;;;819.20;1459.20;;;;;;5008836;28;20115;-81
2021/09/24 11:37:04;;;;;;;5.50;3.10;;;794.40;1433.60;;;;;;5009128;28;20524;-76
2021/09/24 11:39:30;;;;;;;6.22;3.78;;;819.40;1433.60;;;;;;5006823;28;20069;-76
2021/09/24 11:42:13;;;;;;;11.52;5.95;;;819.30;1433.60;;;;;;4984136;28;20513;-77
2021/09/24 11:45:07;;;;;;;8.90;4.45;;;820.10;1408.00;;;;;;5000665;28;20026;-77
2021/09/24 11:47:39;;;;;;;7.88;3.60;;;819.90;1408.00;;;;;;5008081;28;20414;-76
2021/09/24 11:50:25;;;;;;;5.35;3.65;;;819.40;1408.00;;;;;;5012634;28;20026;-77
2021/09/24 11:52:55;;;;;;;8.48;4.93;;;819.20;1433.60;;;;;;4994737;28;20100;-77
2021/09/24 11:55:30;;;;;;;5.78;4.13;;;819.60;1408.00;;;;;;5004903;28;20099;-77
2021/09/24 11:58:17;;;;;;;8.85;4.35;;;819.30;1408.00;;;;;;4994181;28;20064;-76
2021/09/24 12:00:50;;;;;;;6.97;4.00;;;819.40;1408.00;;;;;;5023029;28;20032;-77
2021/09/24 12:03:23;;;;;;;5.63;3.72;;;794.40;1382.40;;;;;;5091190;28;20049;-76
2021/09/24 12:05:49;;;;;;;6.00;3.70;;;819.20;1382.40;;;;;;5090769;28;20410;-79
2021/09/24 12:08:18;;;;;;;8.02;3.47;;;793.90;1408.00;;;;;;5114571;28;20028;-80
2021/09/24 12:10:44;;;;;;;5.35;4.03;;;794.10;1408.00;;;;;;5100892;28;20016;-80